createdAt,value
2022-11-05T00:05:01.473Z,19.69
2022-11-05T00:10:29.736Z,19.68
2022-11-05T00:16:10.273Z,19.62
2022-11-05T00:21:54.069Z,19.56
2022-11-05T00:27:15.795Z,19.53
2022-11-05T00:32:37.567Z,19.51
2022-11-05T00:37:59.297Z,19.49
2022-11-05T00:43:39.306Z,19.48
2022-11-05T00:49:19.317Z,19.44
2022-11-05T00:54:41.060Z,19.42
2022-11-05T01:00:02.753Z,19.40
2022-11-05T01:05:24.620Z,19.37
2022-11-05T01:10:48.633Z,19.34
2022-11-05T01:16:10.783Z,19.31
2022-11-05T01:21:32.787Z,19.29
2022-11-05T01:26:54.471Z,19.27
2022-11-05T01:32:16.114Z,19.24
2022-11-05T01:37:38.202Z,19.23
2022-11-05T01:42:59.868Z,19.20
2022-11-05T01:48:37.942Z,19.21
2022-11-05T01:54:07.657Z,19.18
2022-11-05T01:59:44.537Z,19.17
2022-11-05T02:05:07.327Z,19.13
2022-11-05T02:10:29.325Z,19.13
2022-11-05T02:16:02.021Z,19.13
2022-11-05T02:21:46.854Z,19.10
2022-11-05T02:27:21.227Z,19.07
2022-11-05T02:33:06.434Z,19.06
2022-11-05T02:38:34.511Z,19.04
2022-11-05T02:44:24.568Z,19.03
2022-11-05T02:49:52.189Z,19.01
2022-11-05T02:55:19.124Z,19.01
2022-11-05T03:00:40.703Z,18.99
2022-11-05T03:06:18.114Z,19.00
2022-11-05T03:11:48.229Z,18.98
2022-11-05T03:17:16.852Z,18.95
2022-11-05T03:22:43.021Z,18.94
2022-11-05T03:28:08.128Z,18.92
2022-11-05T03:33:33.550Z,18.90
2022-11-05T03:38:58.304Z,18.89
2022-11-05T03:44:26.503Z,18.88
2022-11-05T03:50:14.111Z,18.88
2022-11-05T03:56:00.442Z,18.86
2022-11-05T04:01:22.220Z,18.85
2022-11-05T04:07:02.744Z,18.84
2022-11-05T04:12:42.767Z,18.83
2022-11-05T04:18:04.425Z,18.81
2022-11-05T04:23:44.440Z,18.80
2022-11-05T04:29:25.492Z,18.79
2022-11-05T04:34:47.130Z,18.79
2022-11-05T04:40:09.313Z,18.78
2022-11-05T04:45:34.505Z,18.78
2022-11-05T04:50:56.138Z,18.75
2022-11-05T04:56:25.058Z,18.76
2022-11-05T05:01:53.391Z,18.73
2022-11-05T05:07:15.221Z,18.73
2022-11-05T05:12:37.110Z,18.72
2022-11-05T05:17:59.806Z,18.70
2022-11-05T05:23:21.438Z,18.69
2022-11-05T05:28:43.106Z,18.69
2022-11-05T05:34:05.690Z,18.68
2022-11-05T05:39:27.688Z,18.68
2022-11-05T05:44:49.356Z,18.67
2022-11-05T05:50:11.040Z,18.66
2022-11-05T05:55:32.727Z,18.64
2022-11-05T06:00:55.037Z,18.64
2022-11-05T06:06:21.338Z,18.62
2022-11-05T06:11:43.001Z,18.61
2022-11-05T06:17:04.747Z,18.60
2022-11-05T06:22:26.466Z,18.60
2022-11-05T06:27:48.160Z,18.59
2022-11-05T06:33:10.142Z,18.59
2022-11-05T06:38:34.110Z,18.64
2022-11-05T06:43:55.790Z,18.78
2022-11-05T06:54:39.653Z,19.00
2022-11-05T07:00:07.282Z,19.04
2022-11-05T07:05:29.666Z,19.05
2022-11-05T07:10:51.441Z,19.03
2022-11-05T07:16:13.186Z,19.02
2022-11-05T07:21:34.916Z,18.99
2022-11-05T07:26:56.553Z,18.96
2022-11-05T07:32:18.346Z,18.92
2022-11-05T07:37:47.291Z,18.91
2022-11-05T07:43:09.443Z,18.86
2022-11-05T07:48:31.282Z,18.83
2022-11-05T07:53:52.944Z,18.80
2022-11-05T07:59:14.614Z,18.81
2022-11-05T08:04:36.294Z,18.85
2022-11-05T08:09:57.938Z,18.95
2022-11-05T08:15:19.940Z,19.11
2022-11-05T08:20:43.990Z,19.28
2022-11-05T08:26:06.029Z,19.42
2022-11-05T08:31:27.914Z,19.52
2022-11-05T08:36:49.533Z,19.57
2022-11-05T08:42:11.226Z,19.57
2022-11-05T08:47:32.890Z,19.57
2022-11-05T08:52:54.872Z,19.52
2022-11-05T08:58:17.356Z,19.48
2022-11-05T09:03:41.370Z,19.38
2022-11-05T09:09:03.077Z,19.22
2022-11-05T09:14:27.846Z,19.20
2022-11-05T09:19:49.612Z,19.18
2022-11-05T09:25:11.670Z,19.15
2022-11-05T09:30:36.287Z,19.11
2022-11-05T09:35:59.957Z,19.11
2022-11-05T09:41:31.372Z,19.14
2022-11-05T09:46:59.592Z,19.17
2022-11-05T09:52:25.791Z,19.19
2022-11-05T09:57:54.797Z,19.21
2022-11-05T10:03:20.737Z,19.24
2022-11-05T10:08:45.115Z,19.26
2022-11-05T10:14:15.063Z,19.29
2022-11-05T10:20:20.517Z,19.30
2022-11-05T10:25:55.493Z,19.31
2022-11-05T10:31:21.245Z,19.30
2022-11-05T10:36:45.893Z,19.29
2022-11-05T10:42:44.529Z,19.29
2022-11-05T10:48:36.056Z,19.26
2022-11-05T10:54:06.662Z,19.27
2022-11-05T10:59:30.034Z,19.30
2022-11-05T11:04:56.697Z,19.32
2022-11-05T11:10:22.664Z,19.35
2022-11-05T11:15:44.338Z,19.36
2022-11-05T11:21:20.125Z,19.38
2022-11-05T11:26:42.295Z,19.38
2022-11-05T11:32:04.048Z,19.41
2022-11-05T11:37:33.447Z,19.43
2022-11-05T11:42:58.183Z,19.44
2022-11-05T11:48:24.916Z,19.44
2022-11-05T11:53:49.252Z,19.46
2022-11-05T12:00:07.314Z,19.48
2022-11-05T12:05:41.593Z,19.47
2022-11-05T12:11:15.626Z,19.41
2022-11-05T12:16:52.493Z,19.36
2022-11-05T12:22:32.803Z,19.36
2022-11-05T12:28:36.361Z,19.36
2022-11-05T12:34:19.146Z,19.36
2022-11-05T12:39:43.927Z,19.35
2022-11-05T12:45:27.333Z,19.36
2022-11-05T12:51:30.787Z,19.36
2022-11-05T12:56:59.459Z,19.35
2022-11-05T13:02:30.940Z,19.35
2022-11-05T13:08:14.991Z,19.42
2022-11-05T13:13:41.517Z,19.52
2022-11-05T13:19:25.510Z,19.77
2022-11-05T13:24:54.203Z,19.95
2022-11-05T13:30:20.837Z,20.13
2022-11-05T13:35:48.407Z,20.29
2022-11-05T13:41:33.351Z,20.40
2022-11-05T13:47:00.601Z,20.44
2022-11-05T13:52:27.871Z,20.38
2022-11-05T13:57:55.269Z,20.29
2022-11-05T14:03:20.287Z,20.17
2022-11-05T14:08:46.394Z,20.09
2022-11-05T14:14:17.652Z,20.04
2022-11-05T14:20:09.646Z,19.96
2022-11-05T14:25:34.043Z,19.89
2022-11-05T14:30:55.908Z,19.82
2022-11-05T14:36:20.380Z,19.78
2022-11-05T14:42:04.523Z,19.75
2022-11-05T14:47:30.974Z,19.68
2022-11-05T14:52:55.846Z,19.62
2022-11-05T14:58:29.404Z,19.57
2022-11-05T15:04:17.199Z,19.51
2022-11-05T15:09:47.668Z,19.44
2022-11-05T15:15:24.541Z,19.42
2022-11-05T15:20:48.895Z,19.39
2022-11-05T15:26:31.343Z,19.42
2022-11-05T15:31:53.509Z,19.40
2022-11-05T15:37:15.083Z,19.38
2022-11-05T15:42:36.705Z,19.37
2022-11-05T15:47:58.458Z,19.36
2022-11-05T15:54:23.894Z,19.33
2022-11-05T15:59:31.440Z,19.29
2022-11-05T16:04:53.370Z,19.30
2022-11-05T16:10:28.747Z,19.33
2022-11-05T16:15:59.265Z,19.47
2022-11-05T16:21:23.309Z,19.63
2022-11-05T16:32:30.982Z,19.89
2022-11-05T16:37:53.155Z,19.94
2022-11-05T16:43:20.591Z,19.99
2022-11-05T16:48:42.206Z,20.01
2022-11-05T16:54:04.438Z,19.99
2022-11-05T16:59:26.119Z,19.96
2022-11-05T17:04:47.837Z,19.93
2022-11-05T17:10:09.510Z,19.89
2022-11-05T17:15:35.819Z,19.85
2022-11-05T17:20:57.595Z,19.82
2022-11-05T17:26:19.231Z,19.81
2022-11-05T17:31:41.670Z,19.80
2022-11-05T17:37:03.374Z,19.80
2022-11-05T17:42:25.153Z,19.79
2022-11-05T17:47:46.898Z,19.78
2022-11-05T17:53:09.143Z,19.75
2022-11-05T17:58:30.909Z,19.71
2022-11-05T18:03:52.939Z,19.65
2022-11-05T18:09:15.219Z,19.64
2022-11-05T18:14:36.930Z,19.79
2022-11-05T18:19:58.586Z,20.16
2022-11-05T18:25:20.325Z,20.56
2022-11-05T18:30:42.088Z,20.73
2022-11-05T18:36:03.945Z,20.82
2022-11-05T18:41:26.174Z,20.84
2022-11-05T18:47:03.167Z,20.79
2022-11-05T18:52:26.782Z,20.74
2022-11-05T18:57:48.435Z,20.67
2022-11-05T19:03:10.095Z,20.56
2022-11-05T19:08:32.710Z,20.46
2022-11-05T19:13:54.776Z,20.39
2022-11-05T19:19:16.419Z,20.33
2022-11-05T19:24:38.072Z,20.25
2022-11-05T19:29:59.714Z,20.19
2022-11-05T19:35:21.554Z,20.13
2022-11-05T19:40:43.484Z,20.11
2022-11-05T19:46:10.201Z,20.08
2022-11-05T19:51:32.818Z,20.04
2022-11-05T19:56:54.458Z,20.02
2022-11-05T20:02:16.730Z,20.15
2022-11-05T20:07:38.602Z,20.34
2022-11-05T20:13:00.346Z,20.50
2022-11-05T20:18:22.156Z,20.64
2022-11-05T20:23:44.140Z,20.76
2022-11-05T20:29:06.227Z,20.85
2022-11-05T20:34:31.705Z,20.90
2022-11-05T20:39:53.250Z,20.86
2022-11-05T20:45:14.899Z,20.82
2022-11-05T20:50:43.442Z,20.78
2022-11-05T20:56:08.809Z,20.69
2022-11-05T21:01:33.675Z,20.56
2022-11-05T21:06:57.542Z,20.45
2022-11-05T21:12:21.224Z,20.39
2022-11-05T21:17:44.144Z,20.34
2022-11-05T21:23:05.810Z,20.29
2022-11-05T21:28:27.462Z,20.24
2022-11-05T21:33:54.844Z,20.21
2022-11-05T21:39:17.190Z,20.17
2022-11-05T21:44:38.879Z,20.13
2022-11-05T21:50:00.577Z,20.08
2022-11-05T21:55:40.662Z,20.01
2022-11-05T22:01:03.165Z,19.96
2022-11-05T22:06:24.859Z,19.93
2022-11-05T22:11:46.504Z,19.91
2022-11-05T22:17:09.349Z,19.90
2022-11-05T22:22:31.066Z,19.88
2022-11-05T22:27:52.710Z,19.87
2022-11-05T22:33:14.386Z,19.84
2022-11-05T22:38:36.211Z,19.80
2022-11-05T22:43:58.535Z,19.75
2022-11-05T22:49:20.537Z,19.67
2022-11-05T22:54:42.172Z,19.63
2022-11-05T23:00:12.557Z,19.57
2022-11-05T23:05:34.195Z,19.52
2022-11-05T23:11:28.341Z,19.47
2022-11-05T23:17:09.009Z,19.44
2022-11-05T23:22:50.354Z,19.39
2022-11-05T23:28:13.034Z,19.34
2022-11-05T23:33:35.325Z,19.32
2022-11-05T23:38:56.959Z,19.29
2022-11-05T23:44:36.988Z,19.26
2022-11-05T23:49:58.607Z,19.22
2022-11-05T23:55:24.627Z,19.20
